sensor_id;sensor_type;location;lat;lon;timestamp;P1;durP1;ratioP1;P2;durP2;ratioP2
35909;SDS011;22004;49.120;-0.200;2023-07-22T00:01:05;14.57;;;6.00;;
35909;SDS011;22004;49.120;-0.200;2023-07-22T00:03:30;15.88;;;6.63;;
35909;SDS011;22004;49.120;-0.200;2023-07-22T00:06:29;11.25;;;6.75;;
35909;SDS011;22004;49.120;-0.200;2023-07-22T00:08:47;11.45;;;6.65;;
35909;SDS011;22004;49.120;-0.200;2023-07-22T00:11:12;11.75;;;6.00;;
35909;SDS011;22004;49.120;-0.200;2023-07-22T00:13:38;8.68;;;6.20;;
35909;SDS011;22004;49.120;-0.200;2023-07-22T00:16:03;9.85;;;6.10;;
35909;SDS011;22004;49.120;-0.200;2023-07-22T00:18:29;9.85;;;6.22;;
35909;SDS011;22004;49.120;-0.200;2023-07-22T00:20:55;9.68;;;5.97;;
35909;SDS011;22004;49.120;-0.200;2023-07-22T00:23:21;9.48;;;6.05;;
35909;SDS011;22004;49.120;-0.200;2023-07-22T00:25:47;8.68;;;6.07;;
35909;SDS011;22004;49.120;-0.200;2023-07-22T00:28:12;11.57;;;5.90;;
35909;SDS011;22004;49.120;-0.200;2023-07-22T00:30:38;8.88;;;6.15;;
35909;SDS011;22004;49.120;-0.200;2023-07-22T00:33:03;8.85;;;5.47;;
35909;SDS011;22004;49.120;-0.200;2023-07-22T00:35:29;8.55;;;5.40;;
35909;SDS011;22004;49.120;-0.200;2023-07-22T00:37:54;8.45;;;6.15;;
35909;SDS011;22004;49.120;-0.200;2023-07-22T00:40:19;9.02;;;5.07;;
35909;SDS011;22004;49.120;-0.200;2023-07-22T00:42:45;9.25;;;5.70;;
35909;SDS011;22004;49.120;-0.200;2023-07-22T00:45:10;11.55;;;5.90;;
35909;SDS011;22004;49.120;-0.200;2023-07-22T00:47:35;6.82;;;5.32;;
35909;SDS011;22004;49.120;-0.200;2023-07-22T00:50:01;11.80;;;5.80;;
35909;SDS011;22004;49.120;-0.200;2023-07-22T00:52:28;10.93;;;5.75;;
35909;SDS011;22004;49.120;-0.200;2023-07-22T00:54:53;7.72;;;4.88;;
35909;SDS011;22004;49.120;-0.200;2023-07-22T00:57:20;10.20;;;4.90;;
35909;SDS011;22004;49.120;-0.200;2023-07-22T00:59:45;9.32;;;5.18;;
35909;SDS011;22004;49.120;-0.200;2023-07-22T01:02:10;7.18;;;4.90;;
35909;SDS011;22004;49.120;-0.200;2023-07-22T01:04:36;8.35;;;4.82;;
35909;SDS011;22004;49.120;-0.200;2023-07-22T01:07:03;8.80;;;5.25;;
35909;SDS011;22004;49.120;-0.200;2023-07-22T01:09:38;7.70;;;5.43;;
35909;SDS011;22004;49.120;-0.200;2023-07-22T01:12:05;10.43;;;5.32;;
35909;SDS011;22004;49.120;-0.200;2023-07-22T01:14:32;7.30;;;4.78;;
35909;SDS011;22004;49.120;-0.200;2023-07-22T01:16:59;10.13;;;4.90;;
35909;SDS011;22004;49.120;-0.200;2023-07-22T01:19:26;9.65;;;4.95;;
35909;SDS011;22004;49.120;-0.200;2023-07-22T01:21:53;7.72;;;5.03;;
35909;SDS011;22004;49.120;-0.200;2023-07-22T01:24:20;9.93;;;4.80;;
35909;SDS011;22004;49.120;-0.200;2023-07-22T01:26:46;8.30;;;4.78;;
35909;SDS011;22004;49.120;-0.200;2023-07-22T01:29:12;6.75;;;4.70;;
35909;SDS011;22004;49.120;-0.200;2023-07-22T01:31:38;7.25;;;4.43;;
35909;SDS011;22004;49.120;-0.200;2023-07-22T01:34:04;9.23;;;5.05;;
35909;SDS011;22004;49.120;-0.200;2023-07-22T01:36:29;7.07;;;4.82;;
35909;SDS011;22004;49.120;-0.200;2023-07-22T01:38:55;7.10;;;4.68;;
35909;SDS011;22004;49.120;-0.200;2023-07-22T01:41:20;6.70;;;4.75;;
35909;SDS011;22004;49.120;-0.200;2023-07-22T01:43:46;6.38;;;4.68;;
35909;SDS011;22004;49.120;-0.200;2023-07-22T01:46:11;6.70;;;4.50;;
35909;SDS011;22004;49.120;-0.200;2023-07-22T01:48:37;8.18;;;4.75;;
35909;SDS011;22004;49.120;-0.200;2023-07-22T01:51:02;7.05;;;4.20;;
35909;SDS011;22004;49.120;-0.200;2023-07-22T01:53:28;7.72;;;4.53;;
35909;SDS011;22004;49.120;-0.200;2023-07-22T01:55:54;7.63;;;4.43;;
35909;SDS011;22004;49.120;-0.200;2023-07-22T01:58:19;7.65;;;4.30;;
35909;SDS011;22004;49.120;-0.200;2023-07-22T02:00:49;7.32;;;4.47;;
35909;SDS011;22004;49.120;-0.200;2023-07-22T02:03:15;5.93;;;3.90;;
35909;SDS011;22004;49.120;-0.200;2023-07-22T02:05:40;7.47;;;3.83;;
35909;SDS011;22004;49.120;-0.200;2023-07-22T02:08:06;6.43;;;3.95;;
35909;SDS011;22004;49.120;-0.200;2023-07-22T02:10:31;8.57;;;4.30;;
35909;SDS011;22004;49.120;-0.200;2023-07-22T02:12:56;5.85;;;3.75;;
35909;SDS011;22004;49.120;-0.200;2023-07-22T02:15:22;7.85;;;3.80;;
35909;SDS011;22004;49.120;-0.200;2023-07-22T02:17:49;7.40;;;4.40;;
35909;SDS011;22004;49.120;-0.200;2023-07-22T02:20:14;9.60;;;4.00;;
35909;SDS011;22004;49.120;-0.200;2023-07-22T02:22:40;7.72;;;3.70;;
35909;SDS011;22004;49.120;-0.200;2023-07-22T02:25:05;7.85;;;3.85;;
35909;SDS011;22004;49.120;-0.200;2023-07-22T02:27:31;7.65;;;3.97;;
35909;SDS011;22004;49.120;-0.200;2023-07-22T02:29:57;6.07;;;4.10;;
35909;SDS011;22004;49.120;-0.200;2023-07-22T02:32:22;6.65;;;3.80;;
35909;SDS011;22004;49.120;-0.200;2023-07-22T02:34:47;5.45;;;3.75;;
35909;SDS011;22004;49.120;-0.200;2023-07-22T02:37:13;7.43;;;3.90;;
35909;SDS011;22004;49.120;-0.200;2023-07-22T02:39:38;7.32;;;4.13;;
35909;SDS011;22004;49.120;-0.200;2023-07-22T02:42:04;8.05;;;3.92;;
35909;SDS011;22004;49.120;-0.200;2023-07-22T02:44:29;8.43;;;3.92;;
35909;SDS011;22004;49.120;-0.200;2023-07-22T02:46:55;8.88;;;3.75;;
35909;SDS011;22004;49.120;-0.200;2023-07-22T02:49:20;8.20;;;4.28;;
35909;SDS011;22004;49.120;-0.200;2023-07-22T02:51:45;8.52;;;3.72;;
35909;SDS011;22004;49.120;-0.200;2023-07-22T02:54:11;8.32;;;3.50;;
35909;SDS011;22004;49.120;-0.200;2023-07-22T02:56:36;10.18;;;3.90;;
35909;SDS011;22004;49.120;-0.200;2023-07-22T02:59:02;8.27;;;3.92;;
35909;SDS011;22004;49.120;-0.200;2023-07-22T03:01:27;9.35;;;4.30;;
35909;SDS011;22004;49.120;-0.200;2023-07-22T03:03:53;6.18;;;3.83;;
35909;SDS011;22004;49.120;-0.200;2023-07-22T03:06:18;6.88;;;3.65;;
35909;SDS011;22004;49.120;-0.200;2023-07-22T03:08:44;7.50;;;3.60;;
35909;SDS011;22004;49.120;-0.200;2023-07-22T03:11:09;6.95;;;3.85;;
35909;SDS011;22004;49.120;-0.200;2023-07-22T03:13:34;7.88;;;3.65;;
35909;SDS011;22004;49.120;-0.200;2023-07-22T03:16:00;8.68;;;3.90;;
35909;SDS011;22004;49.120;-0.200;2023-07-22T03:18:29;6.95;;;3.67;;
35909;SDS011;22004;49.120;-0.200;2023-07-22T03:20:56;7.18;;;3.70;;
35909;SDS011;22004;49.120;-0.200;2023-07-22T03:23:22;8.55;;;3.90;;
35909;SDS011;22004;49.120;-0.200;2023-07-22T03:25:47;6.80;;;3.10;;
35909;SDS011;22004;49.120;-0.200;2023-07-22T03:28:13;8.98;;;3.78;;
35909;SDS011;22004;49.120;-0.200;2023-07-22T03:30:38;7.55;;;3.80;;
35909;SDS011;22004;49.120;-0.200;2023-07-22T03:33:04;6.47;;;3.35;;
35909;SDS011;22004;49.120;-0.200;2023-07-22T03:35:30;7.75;;;4.38;;
35909;SDS011;22004;49.120;-0.200;2023-07-22T03:37:56;4.57;;;3.28;;
35909;SDS011;22004;49.120;-0.200;2023-07-22T03:40:21;4.72;;;3.60;;
35909;SDS011;22004;49.120;-0.200;2023-07-22T03:42:55;9.13;;;3.38;;
35909;SDS011;22004;49.120;-0.200;2023-07-22T03:45:23;8.77;;;3.50;;
35909;SDS011;22004;49.120;-0.200;2023-07-22T03:47:52;6.72;;;3.58;;
35909;SDS011;22004;49.120;-0.200;2023-07-22T03:50:19;6.05;;;3.30;;
35909;SDS011;22004;49.120;-0.200;2023-07-22T03:52:45;7.88;;;3.13;;
35909;SDS011;22004;49.120;-0.200;2023-07-22T03:55:10;9.93;;;3.50;;
35909;SDS011;22004;49.120;-0.200;2023-07-22T03:57:36;7.97;;;3.30;;
35909;SDS011;22004;49.120;-0.200;2023-07-22T04:00:01;7.20;;;3.58;;
35909;SDS011;22004;49.120;-0.200;2023-07-22T04:02:28;6.57;;;3.20;;
35909;SDS011;22004;49.120;-0.200;2023-07-22T04:04:54;6.63;;;3.15;;
35909;SDS011;22004;49.120;-0.200;2023-07-22T04:07:20;4.53;;;2.92;;
35909;SDS011;22004;49.120;-0.200;2023-07-22T04:09:47;6.28;;;3.45;;
35909;SDS011;22004;49.120;-0.200;2023-07-22T04:12:12;7.85;;;3.17;;
35909;SDS011;22004;49.120;-0.200;2023-07-22T04:14:38;5.45;;;3.22;;
35909;SDS011;22004;49.120;-0.200;2023-07-22T04:17:04;7.43;;;3.17;;
35909;SDS011;22004;49.120;-0.200;2023-07-22T04:19:30;5.22;;;2.97;;
35909;SDS011;22004;49.120;-0.200;2023-07-22T04:21:56;6.60;;;3.00;;
35909;SDS011;22004;49.120;-0.200;2023-07-22T04:24:21;4.15;;;2.80;;
35909;SDS011;22004;49.120;-0.200;2023-07-22T04:26:47;9.20;;;3.20;;
35909;SDS011;22004;49.120;-0.200;2023-07-22T04:29:12;6.60;;;3.00;;
35909;SDS011;22004;49.120;-0.200;2023-07-22T04:31:38;5.40;;;3.28;;
35909;SDS011;22004;49.120;-0.200;2023-07-22T04:34:03;5.28;;;2.90;;
35909;SDS011;22004;49.120;-0.200;2023-07-22T04:36:30;6.63;;;2.80;;
35909;SDS011;22004;49.120;-0.200;2023-07-22T04:38:56;4.68;;;2.60;;
35909;SDS011;22004;49.120;-0.200;2023-07-22T04:41:21;4.40;;;2.90;;
35909;SDS011;22004;49.120;-0.200;2023-07-22T04:43:46;4.32;;;2.50;;
35909;SDS011;22004;49.120;-0.200;2023-07-22T04:46:12;4.97;;;2.63;;
35909;SDS011;22004;49.120;-0.200;2023-07-22T04:48:38;7.57;;;3.15;;
35909;SDS011;22004;49.120;-0.200;2023-07-22T04:51:03;5.13;;;2.95;;
35909;SDS011;22004;49.120;-0.200;2023-07-22T04:53:28;7.45;;;2.60;;
35909;SDS011;22004;49.120;-0.200;2023-07-22T04:55:54;4.57;;;2.40;;
35909;SDS011;22004;49.120;-0.200;2023-07-22T04:58:20;4.05;;;2.28;;
35909;SDS011;22004;49.120;-0.200;2023-07-22T05:00:46;4.20;;;2.40;;
35909;SDS011;22004;49.120;-0.200;2023-07-22T05:03:11;4.90;;;2.75;;
35909;SDS011;22004;49.120;-0.200;2023-07-22T05:05:36;5.30;;;2.20;;
35909;SDS011;22004;49.120;-0.200;2023-07-22T05:08:02;4.35;;;2.55;;
35909;SDS011;22004;49.120;-0.200;2023-07-22T05:10:27;4.22;;;2.25;;
35909;SDS011;22004;49.120;-0.200;2023-07-22T05:12:54;5.38;;;2.67;;
35909;SDS011;22004;49.120;-0.200;2023-07-22T05:15:19;5.97;;;2.70;;
35909;SDS011;22004;49.120;-0.200;2023-07-22T05:17:45;4.28;;;2.45;;
35909;SDS011;22004;49.120;-0.200;2023-07-22T05:20:11;5.22;;;2.00;;
35909;SDS011;22004;49.120;-0.200;2023-07-22T05:22:38;9.05;;;2.85;;
35909;SDS011;22004;49.120;-0.200;2023-07-22T05:25:04;2.90;;;2.38;;
35909;SDS011;22004;49.120;-0.200;2023-07-22T05:27:31;3.95;;;2.40;;
35909;SDS011;22004;49.120;-0.200;2023-07-22T05:29:56;3.75;;;2.10;;
35909;SDS011;22004;49.120;-0.200;2023-07-22T05:32:22;5.75;;;2.42;;
35909;SDS011;22004;49.120;-0.200;2023-07-22T05:34:47;3.08;;;1.98;;
35909;SDS011;22004;49.120;-0.200;2023-07-22T05:37:13;4.43;;;2.10;;
35909;SDS011;22004;49.120;-0.200;2023-07-22T05:39:38;5.55;;;2.22;;
35909;SDS011;22004;49.120;-0.200;2023-07-22T05:42:03;5.30;;;2.40;;
35909;SDS011;22004;49.120;-0.200;2023-07-22T05:44:29;4.18;;;2.30;;
35909;SDS011;22004;49.120;-0.200;2023-07-22T05:46:54;5.85;;;2.45;;
35909;SDS011;22004;49.120;-0.200;2023-07-22T05:49:20;5.20;;;1.95;;
35909;SDS011;22004;49.120;-0.200;2023-07-22T05:51:45;5.43;;;2.00;;
35909;SDS011;22004;49.120;-0.200;2023-07-22T05:54:11;4.65;;;2.03;;
35909;SDS011;22004;49.120;-0.200;2023-07-22T05:56:36;3.85;;;2.10;;
35909;SDS011;22004;49.120;-0.200;2023-07-22T05:59:01;3.78;;;2.05;;
35909;SDS011;22004;49.120;-0.200;2023-07-22T06:01:27;3.17;;;1.95;;
35909;SDS011;22004;49.120;-0.200;2023-07-22T06:03:52;2.53;;;1.70;;
35909;SDS011;22004;49.120;-0.200;2023-07-22T06:06:18;5.63;;;2.08;;
35909;SDS011;22004;49.120;-0.200;2023-07-22T06:08:43;4.70;;;1.92;;
35909;SDS011;22004;49.120;-0.200;2023-07-22T06:11:09;4.78;;;1.98;;
35909;SDS011;22004;49.120;-0.200;2023-07-22T06:13:34;4.03;;;2.10;;
35909;SDS011;22004;49.120;-0.200;2023-07-22T06:16:00;4.88;;;1.98;;
35909;SDS011;22004;49.120;-0.200;2023-07-22T06:18:25;3.53;;;2.08;;
35909;SDS011;22004;49.120;-0.200;2023-07-22T06:20:50;4.90;;;2.08;;
35909;SDS011;22004;49.120;-0.200;2023-07-22T06:23:16;7.03;;;2.20;;
35909;SDS011;22004;49.120;-0.200;2023-07-22T06:25:42;3.28;;;2.00;;
35909;SDS011;22004;49.120;-0.200;2023-07-22T06:28:08;5.07;;;1.92;;
35909;SDS011;22004;49.120;-0.200;2023-07-22T06:30:33;7.65;;;2.08;;
35909;SDS011;22004;49.120;-0.200;2023-07-22T06:32:58;2.38;;;1.50;;
35909;SDS011;22004;49.120;-0.200;2023-07-22T06:35:24;4.22;;;1.90;;
35909;SDS011;22004;49.120;-0.200;2023-07-22T06:37:49;8.07;;;2.80;;
35909;SDS011;22004;49.120;-0.200;2023-07-22T06:40:14;5.07;;;2.03;;
35909;SDS011;22004;49.120;-0.200;2023-07-22T06:42:40;6.85;;;2.33;;
35909;SDS011;22004;49.120;-0.200;2023-07-22T06:45:05;5.85;;;1.80;;
35909;SDS011;22004;49.120;-0.200;2023-07-22T06:47:31;6.35;;;1.85;;
35909;SDS011;22004;49.120;-0.200;2023-07-22T06:49:56;12.13;;;1.90;;
35909;SDS011;22004;49.120;-0.200;2023-07-22T06:52:22;4.28;;;1.70;;
35909;SDS011;22004;49.120;-0.200;2023-07-22T06:54:48;3.13;;;1.75;;
35909;SDS011;22004;49.120;-0.200;2023-07-22T06:57:13;4.53;;;2.00;;
35909;SDS011;22004;49.120;-0.200;2023-07-22T06:59:39;3.35;;;1.60;;
35909;SDS011;22004;49.120;-0.200;2023-07-22T07:02:04;6.65;;;1.90;;
35909;SDS011;22004;49.120;-0.200;2023-07-22T07:04:32;4.32;;;1.80;;
35909;SDS011;22004;49.120;-0.200;2023-07-22T07:06:58;6.70;;;1.90;;
35909;SDS011;22004;49.120;-0.200;2023-07-22T07:09:24;9.70;;;1.98;;
35909;SDS011;22004;49.120;-0.200;2023-07-22T07:11:50;5.07;;;1.83;;
35909;SDS011;22004;49.120;-0.200;2023-07-22T07:14:15;4.03;;;1.65;;
35909;SDS011;22004;49.120;-0.200;2023-07-22T07:16:41;8.88;;;1.83;;
35909;SDS011;22004;49.120;-0.200;2023-07-22T07:19:06;4.03;;;1.85;;
35909;SDS011;22004;49.120;-0.200;2023-07-22T07:21:31;5.55;;;1.77;;
35909;SDS011;22004;49.120;-0.200;2023-07-22T07:23:57;4.70;;;1.40;;
35909;SDS011;22004;49.120;-0.200;2023-07-22T07:26:22;4.50;;;1.63;;
35909;SDS011;22004;49.120;-0.200;2023-07-22T07:28:48;11.23;;;2.65;;
35909;SDS011;22004;49.120;-0.200;2023-07-22T07:31:16;6.95;;;1.83;;
35909;SDS011;22004;49.120;-0.200;2023-07-22T07:33:41;4.00;;;1.55;;
35909;SDS011;22004;49.120;-0.200;2023-07-22T07:36:06;7.47;;;2.00;;
35909;SDS011;22004;49.120;-0.200;2023-07-22T07:38:32;5.13;;;1.88;;
35909;SDS011;22004;49.120;-0.200;2023-07-22T07:40:58;5.47;;;1.73;;
35909;SDS011;22004;49.120;-0.200;2023-07-22T07:43:25;4.35;;;1.42;;
35909;SDS011;22004;49.120;-0.200;2023-07-22T07:45:51;4.32;;;1.67;;
35909;SDS011;22004;49.120;-0.200;2023-07-22T07:48:49;6.60;;;2.20;;
35909;SDS011;22004;49.120;-0.200;2023-07-22T07:51:16;4.47;;;1.60;;
35909;SDS011;22004;49.120;-0.200;2023-07-22T07:53:43;10.68;;;1.48;;
35909;SDS011;22004;49.120;-0.200;2023-07-22T07:56:09;6.25;;;1.92;;
35909;SDS011;22004;49.120;-0.200;2023-07-22T07:58:36;5.22;;;1.63;;
35909;SDS011;22004;49.120;-0.200;2023-07-22T08:01:02;6.75;;;1.70;;
35909;SDS011;22004;49.120;-0.200;2023-07-22T08:03:27;4.60;;;1.90;;
35909;SDS011;22004;49.120;-0.200;2023-07-22T08:05:52;8.57;;;1.88;;
35909;SDS011;22004;49.120;-0.200;2023-07-22T08:08:18;8.45;;;2.13;;
35909;SDS011;22004;49.120;-0.200;2023-07-22T08:10:43;6.13;;;1.85;;
35909;SDS011;22004;49.120;-0.200;2023-07-22T08:13:09;4.65;;;1.70;;
35909;SDS011;22004;49.120;-0.200;2023-07-22T08:15:35;2.95;;;1.40;;
35909;SDS011;22004;49.120;-0.200;2023-07-22T08:18:00;5.88;;;1.55;;
35909;SDS011;22004;49.120;-0.200;2023-07-22T08:20:25;7.90;;;1.50;;
35909;SDS011;22004;49.120;-0.200;2023-07-22T08:22:51;7.70;;;1.80;;
35909;SDS011;22004;49.120;-0.200;2023-07-22T08:25:16;5.38;;;1.50;;
35909;SDS011;22004;49.120;-0.200;2023-07-22T08:27:41;4.53;;;1.50;;
35909;SDS011;22004;49.120;-0.200;2023-07-22T08:30:07;5.28;;;1.40;;
35909;SDS011;22004;49.120;-0.200;2023-07-22T08:32:33;4.78;;;1.80;;
35909;SDS011;22004;49.120;-0.200;2023-07-22T08:34:58;6.65;;;1.80;;
35909;SDS011;22004;49.120;-0.200;2023-07-22T08:37:23;3.63;;;1.92;;
35909;SDS011;22004;49.120;-0.200;2023-07-22T08:39:49;7.60;;;1.50;;
35909;SDS011;22004;49.120;-0.200;2023-07-22T08:42:14;4.63;;;1.27;;
35909;SDS011;22004;49.120;-0.200;2023-07-22T08:44:44;6.53;;;1.92;;
35909;SDS011;22004;49.120;-0.200;2023-07-22T08:47:15;4.40;;;1.60;;
35909;SDS011;22004;49.120;-0.200;2023-07-22T08:49:43;6.82;;;1.63;;
35909;SDS011;22004;49.120;-0.200;2023-07-22T08:52:13;7.93;;;2.10;;
35909;SDS011;22004;49.120;-0.200;2023-07-22T08:54:40;3.00;;;1.40;;
35909;SDS011;22004;49.120;-0.200;2023-07-22T08:57:07;8.90;;;1.80;;
35909;SDS011;22004;49.120;-0.200;2023-07-22T08:59:34;4.50;;;1.48;;
35909;SDS011;22004;49.120;-0.200;2023-07-22T09:02:00;3.60;;;1.48;;
35909;SDS011;22004;49.120;-0.200;2023-07-22T09:04:26;4.07;;;1.60;;
35909;SDS011;22004;49.120;-0.200;2023-07-22T09:06:51;3.83;;;1.40;;
35909;SDS011;22004;49.120;-0.200;2023-07-22T09:09:18;5.70;;;1.45;;
35909;SDS011;22004;49.120;-0.200;2023-07-22T09:11:44;4.07;;;1.60;;
35909;SDS011;22004;49.120;-0.200;2023-07-22T09:14:11;6.53;;;2.55;;
35909;SDS011;22004;49.120;-0.200;2023-07-22T09:16:37;4.07;;;1.50;;
35909;SDS011;22004;49.120;-0.200;2023-07-22T09:19:03;5.10;;;1.60;;
35909;SDS011;22004;49.120;-0.200;2023-07-22T09:21:29;7.38;;;1.67;;
35909;SDS011;22004;49.120;-0.200;2023-07-22T09:23:54;6.05;;;1.88;;
35909;SDS011;22004;49.120;-0.200;2023-07-22T09:26:20;3.50;;;1.25;;
35909;SDS011;22004;49.120;-0.200;2023-07-22T09:28:52;4.10;;;1.67;;
35909;SDS011;22004;49.120;-0.200;2023-07-22T09:31:26;12.02;;;1.83;;
35909;SDS011;22004;49.120;-0.200;2023-07-22T09:33:53;2.67;;;2.00;;
35909;SDS011;22004;49.120;-0.200;2023-07-22T09:36:19;4.40;;;1.75;;
35909;SDS011;22004;49.120;-0.200;2023-07-22T09:38:45;4.43;;;1.80;;
35909;SDS011;22004;49.120;-0.200;2023-07-22T09:41:10;6.78;;;2.30;;
35909;SDS011;22004;49.120;-0.200;2023-07-22T09:43:37;6.47;;;2.13;;
35909;SDS011;22004;49.120;-0.200;2023-07-22T09:46:07;5.68;;;2.28;;
35909;SDS011;22004;49.120;-0.200;2023-07-22T09:48:39;5.53;;;2.35;;
35909;SDS011;22004;49.120;-0.200;2023-07-22T09:51:13;7.30;;;1.85;;
35909;SDS011;22004;49.120;-0.200;2023-07-22T09:53:44;5.05;;;2.17;;
35909;SDS011;22004;49.120;-0.200;2023-07-22T09:56:10;9.75;;;2.45;;
35909;SDS011;22004;49.120;-0.200;2023-07-22T09:58:35;6.60;;;2.40;;
35909;SDS011;22004;49.120;-0.200;2023-07-22T10:01:02;4.07;;;1.98;;
35909;SDS011;22004;49.120;-0.200;2023-07-22T10:03:29;7.32;;;2.17;;
35909;SDS011;22004;49.120;-0.200;2023-07-22T10:05:56;6.22;;;2.42;;
35909;SDS011;22004;49.120;-0.200;2023-07-22T10:08:25;8.10;;;2.88;;
35909;SDS011;22004;49.120;-0.200;2023-07-22T10:10:54;6.85;;;3.03;;
35909;SDS011;22004;49.120;-0.200;2023-07-22T10:13:22;10.23;;;3.20;;
35909;SDS011;22004;49.120;-0.200;2023-07-22T10:15:49;3.35;;;2.28;;
35909;SDS011;22004;49.120;-0.200;2023-07-22T10:18:15;6.43;;;2.47;;
35909;SDS011;22004;49.120;-0.200;2023-07-22T10:20:41;7.40;;;2.63;;
35909;SDS011;22004;49.120;-0.200;2023-07-22T10:23:07;9.13;;;2.50;;
35909;SDS011;22004;49.120;-0.200;2023-07-22T10:25:33;8.60;;;2.70;;
35909;SDS011;22004;49.120;-0.200;2023-07-22T10:27:59;13.05;;;3.53;;
35909;SDS011;22004;49.120;-0.200;2023-07-22T10:30:24;6.55;;;2.70;;
35909;SDS011;22004;49.120;-0.200;2023-07-22T10:32:52;5.07;;;2.60;;
35909;SDS011;22004;49.120;-0.200;2023-07-22T10:38:17;5.38;;;2.30;;
35909;SDS011;22004;49.120;-0.200;2023-07-22T10:40:52;5.25;;;2.40;;
35909;SDS011;22004;49.120;-0.200;2023-07-22T10:43:24;6.20;;;2.97;;
35909;SDS011;22004;49.120;-0.200;2023-07-22T10:45:55;6.20;;;2.72;;
35909;SDS011;22004;49.120;-0.200;2023-07-22T10:48:22;7.38;;;2.95;;
35909;SDS011;22004;49.120;-0.200;2023-07-22T10:50:51;6.63;;;2.75;;
35909;SDS011;22004;49.120;-0.200;2023-07-22T10:54:00;6.90;;;3.00;;
35909;SDS011;22004;49.120;-0.200;2023-07-22T10:56:15;4.32;;;2.80;;
35909;SDS011;22004;49.120;-0.200;2023-07-22T11:04:14;5.07;;;2.92;;
35909;SDS011;22004;49.120;-0.200;2023-07-22T11:09:46;5.57;;;2.97;;
35909;SDS011;22004;49.120;-0.200;2023-07-22T11:12:08;7.80;;;2.70;;
35909;SDS011;22004;49.120;-0.200;2023-07-22T11:14:46;7.68;;;3.05;;
35909;SDS011;22004;49.120;-0.200;2023-07-22T11:17:16;6.00;;;2.45;;
35909;SDS011;22004;49.120;-0.200;2023-07-22T11:19:43;5.10;;;2.92;;
35909;SDS011;22004;49.120;-0.200;2023-07-22T11:22:08;5.10;;;3.03;;
35909;SDS011;22004;49.120;-0.200;2023-07-22T11:24:35;10.25;;;3.10;;
35909;SDS011;22004;49.120;-0.200;2023-07-22T11:27:05;7.63;;;3.38;;
35909;SDS011;22004;49.120;-0.200;2023-07-22T11:29:31;10.18;;;2.92;;
35909;SDS011;22004;49.120;-0.200;2023-07-22T11:31:57;5.95;;;3.10;;
35909;SDS011;22004;49.120;-0.200;2023-07-22T11:34:23;6.55;;;3.03;;
35909;SDS011;22004;49.120;-0.200;2023-07-22T11:36:50;7.65;;;3.40;;
35909;SDS011;22004;49.120;-0.200;2023-07-22T11:39:17;9.50;;;2.97;;
35909;SDS011;22004;49.120;-0.200;2023-07-22T11:41:44;6.35;;;3.28;;
35909;SDS011;22004;49.120;-0.200;2023-07-22T11:44:12;9.10;;;3.60;;
35909;SDS011;22004;49.120;-0.200;2023-07-22T11:46:51;11.75;;;3.10;;
35909;SDS011;22004;49.120;-0.200;2023-07-22T11:49:25;7.93;;;3.50;;
35909;SDS011;22004;49.120;-0.200;2023-07-22T11:52:04;6.88;;;3.30;;
35909;SDS011;22004;49.120;-0.200;2023-07-22T11:54:32;6.22;;;3.15;;
35909;SDS011;22004;49.120;-0.200;2023-07-22T11:59:52;5.80;;;3.30;;
35909;SDS011;22004;49.120;-0.200;2023-07-22T12:02:20;5.35;;;3.03;;
35909;SDS011;22004;49.120;-0.200;2023-07-22T12:04:53;7.82;;;3.47;;
35909;SDS011;22004;49.120;-0.200;2023-07-22T12:07:22;6.88;;;3.65;;
35909;SDS011;22004;49.120;-0.200;2023-07-22T12:09:51;11.55;;;7.38;;
35909;SDS011;22004;49.120;-0.200;2023-07-22T12:12:18;6.95;;;4.90;;
35909;SDS011;22004;49.120;-0.200;2023-07-22T12:14:44;8.82;;;3.53;;
35909;SDS011;22004;49.120;-0.200;2023-07-22T12:17:09;5.20;;;2.97;;
35909;SDS011;22004;49.120;-0.200;2023-07-22T12:19:34;4.78;;;3.10;;
35909;SDS011;22004;49.120;-0.200;2023-07-22T12:22:00;6.53;;;3.42;;
35909;SDS011;22004;49.120;-0.200;2023-07-22T12:24:27;8.38;;;3.70;;
35909;SDS011;22004;49.120;-0.200;2023-07-22T12:26:53;9.15;;;3.30;;
35909;SDS011;22004;49.120;-0.200;2023-07-22T12:29:19;8.05;;;3.90;;
35909;SDS011;22004;49.120;-0.200;2023-07-22T12:31:44;5.22;;;3.45;;
35909;SDS011;22004;49.120;-0.200;2023-07-22T12:34:10;7.57;;;3.80;;
35909;SDS011;22004;49.120;-0.200;2023-07-22T12:36:35;9.13;;;3.03;;
35909;SDS011;22004;49.120;-0.200;2023-07-22T12:39:00;5.00;;;3.20;;
35909;SDS011;22004;49.120;-0.200;2023-07-22T12:41:27;7.20;;;3.20;;
35909;SDS011;22004;49.120;-0.200;2023-07-22T12:43:52;6.80;;;3.10;;
35909;SDS011;22004;49.120;-0.200;2023-07-22T12:46:17;14.77;;;3.92;;
35909;SDS011;22004;49.120;-0.200;2023-07-22T12:48:43;12.85;;;3.38;;
35909;SDS011;22004;49.120;-0.200;2023-07-22T12:51:08;7.22;;;3.88;;
35909;SDS011;22004;49.120;-0.200;2023-07-22T12:53:34;6.75;;;3.72;;
35909;SDS011;22004;49.120;-0.200;2023-07-22T12:56:00;13.02;;;3.70;;
35909;SDS011;22004;49.120;-0.200;2023-07-22T12:58:28;7.05;;;3.15;;
35909;SDS011;22004;49.120;-0.200;2023-07-22T13:00:53;5.80;;;2.97;;
35909;SDS011;22004;49.120;-0.200;2023-07-22T13:03:19;6.53;;;3.47;;
35909;SDS011;22004;49.120;-0.200;2023-07-22T13:05:44;5.80;;;3.08;;
35909;SDS011;22004;49.120;-0.200;2023-07-22T13:08:09;6.70;;;3.10;;
35909;SDS011;22004;49.120;-0.200;2023-07-22T13:10:35;7.35;;;3.40;;
35909;SDS011;22004;49.120;-0.200;2023-07-22T13:13:02;8.13;;;3.58;;
35909;SDS011;22004;49.120;-0.200;2023-07-22T13:15:28;8.05;;;3.55;;
35909;SDS011;22004;49.120;-0.200;2023-07-22T13:17:54;5.45;;;3.22;;
35909;SDS011;22004;49.120;-0.200;2023-07-22T13:20:19;9.27;;;3.28;;
35909;SDS011;22004;49.120;-0.200;2023-07-22T13:22:44;9.23;;;3.80;;
35909;SDS011;22004;49.120;-0.200;2023-07-22T13:25:10;7.75;;;3.38;;
35909;SDS011;22004;49.120;-0.200;2023-07-22T13:27:35;6.80;;;3.78;;
35909;SDS011;22004;49.120;-0.200;2023-07-22T13:30:03;8.18;;;3.78;;
35909;SDS011;22004;49.120;-0.200;2023-07-22T13:32:29;6.05;;;3.60;;
35909;SDS011;22004;49.120;-0.200;2023-07-22T13:34:54;9.77;;;3.55;;
35909;SDS011;22004;49.120;-0.200;2023-07-22T13:37:19;7.03;;;4.05;;
35909;SDS011;22004;49.120;-0.200;2023-07-22T13:39:45;8.23;;;3.80;;
35909;SDS011;22004;49.120;-0.200;2023-07-22T13:42:10;5.50;;;3.70;;
35909;SDS011;22004;49.120;-0.200;2023-07-22T13:44:35;7.15;;;3.67;;
35909;SDS011;22004;49.120;-0.200;2023-07-22T13:47:01;6.82;;;3.30;;
35909;SDS011;22004;49.120;-0.200;2023-07-22T13:49:26;6.75;;;3.60;;
35909;SDS011;22004;49.120;-0.200;2023-07-22T13:51:51;6.60;;;4.10;;
35909;SDS011;22004;49.120;-0.200;2023-07-22T13:54:17;6.35;;;3.53;;
35909;SDS011;22004;49.120;-0.200;2023-07-22T13:56:42;11.15;;;3.88;;
35909;SDS011;22004;49.120;-0.200;2023-07-22T13:59:08;6.60;;;3.67;;
35909;SDS011;22004;49.120;-0.200;2023-07-22T14:01:34;6.93;;;3.80;;
35909;SDS011;22004;49.120;-0.200;2023-07-22T14:03:59;7.40;;;3.80;;
35909;SDS011;22004;49.120;-0.200;2023-07-22T14:06:25;10.20;;;4.10;;
35909;SDS011;22004;49.120;-0.200;2023-07-22T14:08:50;5.28;;;3.85;;
35909;SDS011;22004;49.120;-0.200;2023-07-22T14:11:15;7.30;;;3.72;;
35909;SDS011;22004;49.120;-0.200;2023-07-22T14:13:42;8.02;;;3.78;;
35909;SDS011;22004;49.120;-0.200;2023-07-22T14:16:08;7.65;;;4.38;;
35909;SDS011;22004;49.120;-0.200;2023-07-22T14:18:33;5.72;;;3.05;;
35909;SDS011;22004;49.120;-0.200;2023-07-22T14:20:58;11.07;;;3.70;;
35909;SDS011;22004;49.120;-0.200;2023-07-22T14:23:24;6.30;;;3.75;;
35909;SDS011;22004;49.120;-0.200;2023-07-22T14:25:49;6.30;;;3.65;;
35909;SDS011;22004;49.120;-0.200;2023-07-22T14:28:15;8.63;;;3.67;;
35909;SDS011;22004;49.120;-0.200;2023-07-22T14:30:40;5.95;;;2.97;;
35909;SDS011;22004;49.120;-0.200;2023-07-22T14:33:05;6.95;;;3.72;;
35909;SDS011;22004;49.120;-0.200;2023-07-22T14:35:31;9.02;;;3.92;;
35909;SDS011;22004;49.120;-0.200;2023-07-22T14:37:59;8.30;;;3.38;;
35909;SDS011;22004;49.120;-0.200;2023-07-22T14:40:25;5.60;;;3.25;;
35909;SDS011;22004;49.120;-0.200;2023-07-22T14:42:51;6.68;;;3.33;;